Time;durP1;ratioP1;P1;durP2;ratioP2;P2;SDS_P1;SDS_P2;PMS_P1;PMS_P2;Temp;Humidity;BMP_temperature;BMP_pressure;BME280_temperature;BME280_humidity;BME280_pressure;Samples;Min_cycle;Max_cycle;Signal;HPM_P1;HPM_P2
2023/02/08 00:01:37;;;;;;;33.35;23.55;;;;;;;;;;5035483;28;20217;-66
2023/02/08 00:04:06;;;;;;;34.20;24.42;;;;;;;;;;5035275;28;20191;-66
2023/02/08 00:06:33;;;;;;;33.58;23.73;;;;;;;;;;5035343;28;20201;-66
2023/02/08 00:09:01;;;;;;;45.25;24.10;;;;;;;;;;5035139;28;20315;-66
2023/02/08 00:11:28;;;;;;;33.83;23.33;;;;;;;;;;5040141;28;20218;-66
2023/02/08 00:13:56;;;;;;;35.17;23.83;;;;;;;;;;5033542;28;20227;-66
2023/02/08 00:16:23;;;;;;;31.73;22.35;;;;;;;;;;5033972;28;20202;-66
2023/02/08 00:18:50;;;;;;;32.88;23.23;;;;;;;;;;5033622;28;20203;-66
2023/02/08 00:21:19;;;;;;;34.28;21.85;;;;;;;;;;5034184;28;20204;-66
2023/02/08 00:23:47;;;;;;;32.47;22.20;;;;;;;;;;5034581;28;20211;-66
2023/02/08 00:26:14;;;;;;;36.45;21.00;;;;;;;;;;5034113;28;20697;-67
2023/02/08 00:28:42;;;;;;;33.22;22.05;;;;;;;;;;5034529;28;20204;-66
2023/02/08 00:31:09;;;;;;;30.95;22.55;;;;;;;;;;5034517;28;20215;-66
2023/02/08 00:33:36;;;;;;;35.08;22.77;;;;;;;;;;5034508;28;20202;-66
2023/02/08 00:36:05;;;;;;;39.05;22.98;;;;;;;;;;5034481;28;20195;-66
2023/02/08 00:38:33;;;;;;;28.98;20.77;;;;;;;;;;5033508;28;20652;-66
2023/02/08 00:41:00;;;;;;;34.83;21.85;;;;;;;;;;5034243;28;20199;-67
2023/02/08 00:43:28;;;;;;;34.88;23.90;;;;;;;;;;5034664;28;20207;-66
2023/02/08 00:45:55;;;;;;;32.70;24.38;;;;;;;;;;5034569;28;20202;-66
2023/02/08 00:48:23;;;;;;;35.60;23.77;;;;;;;;;;5034752;28;20288;-66
2023/02/08 00:50:57;;;;;;;38.30;22.05;;;;;;;;;;5034415;28;20216;-66
2023/02/08 00:53:24;;;;;;;37.08;22.95;;;;;;;;;;5034773;28;20214;-66
2023/02/08 00:55:53;;;;;;;34.15;23.70;;;;;;;;;;5034062;28;20234;-66
2023/02/08 00:58:21;;;;;;;38.88;24.95;;;;;;;;;;5034101;28;20204;-66
2023/02/08 01:00:48;;;;;;;37.80;25.13;;;;;;;;;;5034397;28;20202;-66
2023/02/08 01:03:15;;;;;;;31.65;22.80;;;;;;;;;;5051765;28;20202;-66
2023/02/08 01:05:42;;;;;;;37.47;23.60;;;;;;;;;;5054054;28;20195;-66
2023/02/08 01:08:10;;;;;;;37.20;24.77;;;;;;;;;;5053299;28;20593;-67
2023/02/08 01:10:37;;;;;;;37.17;22.02;;;;;;;;;;5053729;28;20311;-66
2023/02/08 01:13:05;;;;;;;35.42;22.45;;;;;;;;;;5053792;28;20656;-66
2023/02/08 01:15:32;;;;;;;36.13;24.05;;;;;;;;;;5053878;28;20205;-66
2023/02/08 01:18:00;;;;;;;40.42;23.58;;;;;;;;;;5053941;28;20191;-66
2023/02/08 01:20:28;;;;;;;33.15;21.80;;;;;;;;;;5053983;28;20195;-66
2023/02/08 01:22:56;;;;;;;34.38;21.38;;;;;;;;;;5053802;28;20553;-66
2023/02/08 01:25:23;;;;;;;30.98;23.33;;;;;;;;;;5053799;28;20219;-66
2023/02/08 01:27:50;;;;;;;39.08;24.60;;;;;;;;;;5053605;28;20198;-66
2023/02/08 01:30:18;;;;;;;33.60;23.45;;;;;;;;;;5053398;28;20314;-66
2023/02/08 01:32:46;;;;;;;38.00;22.50;;;;;;;;;;5053817;28;20195;-66
2023/02/08 01:35:13;;;;;;;34.28;22.63;;;;;;;;;;5053951;28;20202;-66
2023/02/08 01:37:40;;;;;;;34.90;21.02;;;;;;;;;;5053659;28;20192;-66
2023/02/08 01:40:08;;;;;;;34.53;23.15;;;;;;;;;;5053144;28;20293;-66
2023/02/08 01:42:35;;;;;;;32.38;21.17;;;;;;;;;;5053277;28;20282;-66
2023/02/08 01:45:22;;;;;;;34.45;23.50;;;;;;;;;;5053468;28;20550;-66
2023/02/08 01:47:51;;;;;;;33.70;22.60;;;;;;;;;;5053239;28;20208;-66
2023/02/08 01:50:20;;;;;;;32.53;21.35;;;;;;;;;;5053698;28;20222;-66
2023/02/08 01:52:47;;;;;;;35.08;22.88;;;;;;;;;;5068973;28;20194;-66
2023/02/08 01:55:16;;;;;;;33.20;22.90;;;;;;;;;;5073575;28;20285;-67
2023/02/08 01:57:44;;;;;;;34.47;22.33;;;;;;;;;;5073176;28;20204;-67
2023/02/08 02:00:14;;;;;;;36.58;22.58;;;;;;;;;;5073924;28;20202;-67
2023/02/08 02:02:42;;;;;;;32.47;21.13;;;;;;;;;;5058065;28;20309;-66
2023/02/08 02:05:12;;;;;;;38.17;22.45;;;;;;;;;;5053059;28;20195;-66
2023/02/08 02:07:39;;;;;;;36.15;21.27;;;;;;;;;;5052951;28;20199;-66
2023/02/08 02:10:09;;;;;;;39.40;23.13;;;;;;;;;;5051548;28;20201;-66
2023/02/08 02:12:38;;;;;;;41.33;24.00;;;;;;;;;;5053662;28;20187;-66
2023/02/08 02:15:05;;;;;;;34.30;23.17;;;;;;;;;;5053044;28;20217;-66
2023/02/08 02:17:33;;;;;;;36.55;21.85;;;;;;;;;;5052761;28;20675;-66
2023/02/08 02:20:04;;;;;;;32.50;22.77;;;;;;;;;;5053057;28;20200;-67
2023/02/08 02:22:40;;;;;;;33.65;22.70;;;;;;;;;;5053535;28;20197;-66
2023/02/08 02:25:19;;;;;;;32.17;21.40;;;;;;;;;;5052515;28;20225;-67
2023/02/08 02:28:07;;;;;;;30.10;21.08;;;;;;;;;;5053916;28;20183;-66
2023/02/08 02:30:50;;;;;;;35.95;21.52;;;;;;;;;;5027609;28;20545;-66
2023/02/08 02:33:38;;;;;;;33.03;21.85;;;;;;;;;;5052802;28;20185;-66
2023/02/08 02:36:10;;;;;;;32.53;20.50;;;;;;;;;;5027557;28;20659;-67
2023/02/08 02:38:42;;;;;;;39.50;25.13;;;;;;;;;;5053527;28;20190;-67
2023/02/08 02:41:14;;;;;;;32.47;21.83;;;;;;;;;;5053493;28;20642;-66
2023/02/08 02:43:45;;;;;;;40.58;22.02;;;;;;;;;;5053129;28;20209;-66
2023/02/08 02:46:18;;;;;;;31.55;21.25;;;;;;;;;;5052980;28;20185;-66
2023/02/08 02:48:49;;;;;;;35.03;24.23;;;;;;;;;;5052906;28;20192;-66
2023/02/08 02:51:18;;;;;;;33.95;22.85;;;;;;;;;;5053136;28;20212;-66
2023/02/08 02:53:50;;;;;;;36.17;22.30;;;;;;;;;;5054930;28;20195;-66
2023/02/08 02:56:19;;;;;;;33.85;22.92;;;;;;;;;;5056182;28;20200;-66
2023/02/08 02:58:46;;;;;;;30.00;20.48;;;;;;;;;;5056653;28;20210;-66
2023/02/08 03:01:13;;;;;;;37.00;24.70;;;;;;;;;;5055312;28;20212;-68
2023/02/08 03:03:41;;;;;;;34.83;21.77;;;;;;;;;;5056475;28;20200;-66
2023/02/08 03:06:11;;;;;;;38.42;23.00;;;;;;;;;;5056087;28;20670;-66
2023/02/08 03:08:59;;;;;;;35.72;20.80;;;;;;;;;;5055469;28;20191;-66
2023/02/08 03:11:29;;;;;;;32.78;21.05;;;;;;;;;;5049930;28;20225;-66
2023/02/08 03:14:04;;;;;;;33.45;20.83;;;;;;;;;;5056289;28;20286;-65
2023/02/08 03:16:33;;;;;;;34.70;22.42;;;;;;;;;;5056670;28;20568;-66
2023/02/08 03:19:05;;;;;;;36.08;19.42;;;;;;;;;;5056380;28;20195;-68
2023/02/08 03:21:38;;;;;;;31.50;21.05;;;;;;;;;;5055899;28;20205;-67
2023/02/08 03:24:10;;;;;;;40.10;23.35;;;;;;;;;;5056464;28;20523;-68
2023/02/08 03:26:42;;;;;;;33.20;22.40;;;;;;;;;;5056032;28;20227;-68
2023/02/08 03:29:12;;;;;;;36.47;22.63;;;;;;;;;;5056458;28;20179;-67
2023/02/08 03:31:41;;;;;;;33.95;20.23;;;;;;;;;;5056083;28;20229;-68
2023/02/08 03:34:12;;;;;;;39.03;24.48;;;;;;;;;;5055973;28;20195;-67
2023/02/08 03:36:42;;;;;;;29.40;20.27;;;;;;;;;;5056136;28;20184;-68
2023/02/08 03:39:12;;;;;;;33.45;21.60;;;;;;;;;;5055540;28;20186;-68
2023/02/08 03:41:42;;;;;;;31.83;20.42;;;;;;;;;;5055690;28;20194;-67
2023/02/08 03:44:11;;;;;;;34.63;21.25;;;;;;;;;;5055678;28;20694;-68
2023/02/08 03:46:39;;;;;;;35.25;22.67;;;;;;;;;;5055387;28;20195;-68
2023/02/08 03:49:08;;;;;;;38.10;23.60;;;;;;;;;;5055403;28;20210;-67
2023/02/08 03:51:37;;;;;;;37.22;24.02;;;;;;;;;;5055953;28;20219;-68
2023/02/08 03:54:06;;;;;;;34.95;21.55;;;;;;;;;;5055576;28;20199;-67
2023/02/08 03:56:36;;;;;;;34.70;20.98;;;;;;;;;;5055621;28;20195;-67
2023/02/08 03:59:07;;;;;;;31.15;21.38;;;;;;;;;;5055180;28;20201;-66
2023/02/08 04:01:37;;;;;;;31.38;22.73;;;;;;;;;;5053966;28;20191;-68
2023/02/08 04:04:05;;;;;;;28.90;20.75;;;;;;;;;;5055165;28;20539;-67
2023/02/08 04:06:32;;;;;;;33.65;20.80;;;;;;;;;;5055228;28;20220;-68
2023/02/08 04:08:59;;;;;;;34.20;21.23;;;;;;;;;;5054216;28;20201;-68
2023/02/08 04:11:27;;;;;;;40.28;20.50;;;;;;;;;;5055613;28;20230;-67
2023/02/08 04:13:54;;;;;;;30.23;21.38;;;;;;;;;;5055188;28;20197;-68
2023/02/08 04:16:22;;;;;;;31.45;21.42;;;;;;;;;;5055196;28;20190;-68
2023/02/08 04:18:49;;;;;;;32.90;22.02;;;;;;;;;;5054674;28;20286;-68
2023/02/08 04:21:17;;;;;;;34.72;22.58;;;;;;;;;;5055072;28;20199;-67
2023/02/08 04:23:44;;;;;;;32.20;20.35;;;;;;;;;;5054982;28;20191;-67
2023/02/08 04:26:11;;;;;;;31.15;21.45;;;;;;;;;;5054998;28;20238;-66
2023/02/08 04:28:38;;;;;;;37.28;21.60;;;;;;;;;;5054462;28;20205;-68
2023/02/08 04:31:05;;;;;;;32.08;21.67;;;;;;;;;;5055118;28;20215;-68
2023/02/08 04:33:34;;;;;;;32.13;21.45;;;;;;;;;;5054735;28;20203;-67
2023/02/08 04:36:01;;;;;;;35.58;21.45;;;;;;;;;;5054773;28;20195;-68
2023/02/08 04:38:28;;;;;;;31.52;20.23;;;;;;;;;;5054330;28;20227;-67
2023/02/08 04:40:55;;;;;;;35.00;21.15;;;;;;;;;;5054669;28;20200;-67
2023/02/08 04:43:23;;;;;;;32.78;20.95;;;;;;;;;;5054256;28;20205;-67
2023/02/08 04:45:50;;;;;;;32.10;21.98;;;;;;;;;;5054562;28;20203;-67
2023/02/08 04:48:18;;;;;;;31.25;22.15;;;;;;;;;;5054462;28;20190;-67
2023/02/08 04:50:46;;;;;;;33.35;20.45;;;;;;;;;;5054443;28;20194;-67
2023/02/08 04:53:13;;;;;;;31.63;21.13;;;;;;;;;;5054347;28;20199;-66
2023/02/08 04:55:40;;;;;;;31.08;20.45;;;;;;;;;;5042889;28;20192;-67
2023/02/08 04:58:08;;;;;;;28.15;19.55;;;;;;;;;;5033349;28;20200;-67
2023/02/08 05:00:35;;;;;;;34.22;20.48;;;;;;;;;;5034049;28;20198;-68
2023/02/08 05:03:03;;;;;;;30.48;21.02;;;;;;;;;;5033224;28;20679;-68
2023/02/08 05:05:30;;;;;;;34.78;21.02;;;;;;;;;;5033726;28;20560;-69
2023/02/08 05:07:59;;;;;;;34.38;21.20;;;;;;;;;;5033745;28;20303;-68
2023/02/08 05:10:26;;;;;;;30.05;19.48;;;;;;;;;;5033470;28;20201;-67
2023/02/08 05:12:53;;;;;;;30.65;19.88;;;;;;;;;;5033118;28;20225;-68
2023/02/08 05:15:20;;;;;;;32.15;19.55;;;;;;;;;;5033348;28;20192;-67
2023/02/08 05:17:48;;;;;;;28.52;20.33;;;;;;;;;;5033728;28;20206;-67
2023/02/08 05:20:15;;;;;;;28.98;19.85;;;;;;;;;;5033329;28;20191;-68
2023/02/08 05:22:43;;;;;;;31.38;19.90;;;;;;;;;;5033693;28;20214;-68
2023/02/08 05:25:11;;;;;;;29.17;19.90;;;;;;;;;;5038722;28;20738;-67
2023/02/08 05:27:38;;;;;;;29.50;18.73;;;;;;;;;;5053624;28;20286;-68
2023/02/08 05:30:06;;;;;;;31.20;20.70;;;;;;;;;;5053392;28;20205;-67
2023/02/08 05:32:33;;;;;;;29.33;20.65;;;;;;;;;;5053158;28;20687;-66
2023/02/08 05:35:00;;;;;;;31.70;19.00;;;;;;;;;;5053423;28;20195;-66
2023/02/08 05:37:27;;;;;;;31.05;20.50;;;;;;;;;;5053625;28;20208;-67
2023/02/08 05:39:55;;;;;;;36.97;21.60;;;;;;;;;;5053048;28;20209;-67
2023/02/08 05:42:23;;;;;;;27.33;19.08;;;;;;;;;;5053314;28;20213;-66
2023/02/08 05:44:51;;;;;;;25.17;18.48;;;;;;;;;;5053254;28;20220;-65
2023/02/08 05:47:18;;;;;;;31.48;19.60;;;;;;;;;;5053094;28;20195;-66
2023/02/08 05:49:45;;;;;;;31.25;19.13;;;;;;;;;;5053383;28;20195;-65
2023/02/08 05:52:12;;;;;;;32.85;20.42;;;;;;;;;;5052838;28;20222;-65
2023/02/08 05:54:40;;;;;;;28.90;19.70;;;;;;;;;;5052627;28;20201;-65
2023/02/08 05:57:07;;;;;;;32.92;19.52;;;;;;;;;;5053016;28;20513;-67
2023/02/08 05:59:35;;;;;;;32.60;20.65;;;;;;;;;;5052850;28;20221;-67
2023/02/08 06:02:02;;;;;;;30.40;20.42;;;;;;;;;;5052885;28;20213;-66
2023/02/08 06:04:30;;;;;;;32.90;19.23;;;;;;;;;;5052871;28;20666;-65
2023/02/08 06:06:57;;;;;;;32.67;20.67;;;;;;;;;;5053024;28;20195;-65
2023/02/08 06:09:24;;;;;;;27.48;17.88;;;;;;;;;;5053212;28;20195;-66
2023/02/08 06:11:51;;;;;;;33.72;19.83;;;;;;;;;;5053097;28;20214;-66
2023/02/08 06:14:18;;;;;;;30.20;20.83;;;;;;;;;;5052995;28;20195;-65
2023/02/08 06:16:47;;;;;;;32.00;20.90;;;;;;;;;;5053051;28;20190;-67
2023/02/08 06:19:14;;;;;;;32.05;18.20;;;;;;;;;;5052481;28;20248;-67
2023/02/08 06:21:42;;;;;;;27.48;19.83;;;;;;;;;;5052904;28;20324;-66
2023/02/08 06:24:10;;;;;;;29.70;18.80;;;;;;;;;;5052620;28;20204;-65
2023/02/08 06:26:37;;;;;;;27.98;19.02;;;;;;;;;;5052657;28;20219;-66
2023/02/08 06:29:04;;;;;;;26.85;18.60;;;;;;;;;;5056808;28;20208;-65
2023/02/08 06:31:32;;;;;;;27.75;18.85;;;;;;;;;;5056944;28;20204;-65
2023/02/08 06:34:00;;;;;;;28.38;18.52;;;;;;;;;;5056599;28;20194;-66
2023/02/08 06:36:28;;;;;;;27.20;18.17;;;;;;;;;;5057054;28;20554;-65
2023/02/08 06:38:55;;;;;;;25.13;18.63;;;;;;;;;;5056607;28;20195;-65
2023/02/08 06:41:22;;;;;;;30.67;21.00;;;;;;;;;;5056899;28;20194;-65
2023/02/08 06:43:49;;;;;;;31.70;20.20;;;;;;;;;;5057099;28;20191;-65
2023/02/08 06:46:16;;;;;;;47.90;24.38;;;;;;;;;;5056785;28;20198;-65
2023/02/08 06:48:43;;;;;;;31.10;21.00;;;;;;;;;;5056373;28;20286;-65
2023/02/08 06:51:12;;;;;;;29.70;19.67;;;;;;;;;;5056363;28;20205;-66
2023/02/08 06:53:39;;;;;;;32.80;22.50;;;;;;;;;;5056332;28;20218;-65
2023/02/08 06:56:06;;;;;;;30.45;19.90;;;;;;;;;;5056251;28;20206;-65
2023/02/08 06:58:33;;;;;;;32.03;20.90;;;;;;;;;;5056226;28;20199;-64
2023/02/08 07:01:01;;;;;;;32.53;20.58;;;;;;;;;;5056247;28;20580;-64
2023/02/08 07:03:28;;;;;;;43.30;21.40;;;;;;;;;;5056479;28;20290;-65
2023/02/08 07:06:14;;;;;;;29.40;20.98;;;;;;;;;;5090817;28;20532;-65
2023/02/08 07:08:41;;;;;;;30.95;20.98;;;;;;;;;;5071160;28;20194;-65
2023/02/08 07:11:08;;;;;;;29.90;20.55;;;;;;;;;;5070743;28;20194;-65
2023/02/08 07:13:36;;;;;;;33.08;19.73;;;;;;;;;;5070803;28;20190;-65
2023/02/08 07:16:03;;;;;;;29.15;20.65;;;;;;;;;;5070455;28;20190;-66
2023/02/08 07:18:30;;;;;;;30.48;21.02;;;;;;;;;;5071482;28;20201;-66
2023/02/08 07:20:58;;;;;;;33.33;20.98;;;;;;;;;;5070229;28;20190;-66
2023/02/08 07:23:26;;;;;;;31.45;20.30;;;;;;;;;;5070158;28;20190;-66
2023/02/08 07:25:57;;;;;;;35.90;22.80;;;;;;;;;;5070390;28;20214;-66
2023/02/08 07:28:24;;;;;;;38.03;21.75;;;;;;;;;;5070857;28;20175;-66
2023/02/08 07:30:52;;;;;;;33.00;21.73;;;;;;;;;;5070347;28;20190;-66
2023/02/08 07:33:19;;;;;;;36.67;19.90;;;;;;;;;;5070079;28;20543;-66
2023/02/08 07:35:46;;;;;;;31.13;20.90;;;;;;;;;;5069863;28;20201;-66
2023/02/08 07:38:14;;;;;;;33.85;21.45;;;;;;;;;;5070206;28;20194;-66
2023/02/08 07:40:42;;;;;;;27.60;19.65;;;;;;;;;;5070196;28;20227;-66
2023/02/08 07:43:09;;;;;;;37.42;19.85;;;;;;;;;;5069936;28;20194;-66
2023/02/08 07:45:38;;;;;;;33.95;19.80;;;;;;;;;;5070077;28;20221;-66
2023/02/08 07:48:05;;;;;;;40.72;23.25;;;;;;;;;;5070271;28;20186;-66
2023/02/08 07:50:32;;;;;;;32.22;20.38;;;;;;;;;;5069905;28;20198;-65
2023/02/08 07:52:59;;;;;;;35.65;21.15;;;;;;;;;;5069655;28;20201;-66
2023/02/08 07:55:26;;;;;;;28.77;19.70;;;;;;;;;;5069489;28;20194;-66
2023/02/08 07:57:57;;;;;;;31.80;20.17;;;;;;;;;;5069767;28;20191;-66
2023/02/08 08:00:25;;;;;;;38.15;22.38;;;;;;;;;;5069492;28;20269;-66
2023/02/08 08:02:52;;;;;;;30.88;21.40;;;;;;;;;;5069496;28;20639;-66
2023/02/08 08:05:20;;;;;;;28.70;20.45;;;;;;;;;;5069060;28;20232;-66
2023/02/08 08:07:47;;;;;;;23.67;18.20;;;;;;;;;;5069581;28;20190;-66
2023/02/08 08:10:15;;;;;;;26.95;19.52;;;;;;;;;;5069426;28;20187;-66
2023/02/08 08:12:42;;;;;;;30.15;21.00;;;;;;;;;;5069249;28;20190;-66
2023/02/08 08:15:11;;;;;;;29.02;19.42;;;;;;;;;;5069539;28;20551;-66
2023/02/08 08:17:40;;;;;;;35.88;22.13;;;;;;;;;;5055694;28;20253;-65
2023/02/08 08:20:08;;;;;;;36.67;20.80;;;;;;;;;;5056055;28;20223;-66
2023/02/08 08:22:36;;;;;;;31.48;19.60;;;;;;;;;;5055753;28;20662;-66
2023/02/08 08:25:03;;;;;;;28.38;20.58;;;;;;;;;;5055610;28;20210;-66
2023/02/08 08:27:30;;;;;;;24.77;19.08;;;;;;;;;;5055762;28;20197;-66
2023/02/08 08:29:58;;;;;;;27.88;17.27;;;;;;;;;;5056066;28;20191;-66
2023/02/08 08:32:27;;;;;;;25.50;17.35;;;;;;;;;;5055651;28;20250;-66
2023/02/08 08:34:54;;;;;;;28.50;18.13;;;;;;;;;;5056151;28;20191;-66
2023/02/08 08:37:21;;;;;;;21.90;17.30;;;;;;;;;;5055543;28;20187;-66
2023/02/08 08:39:48;;;;;;;25.17;17.08;;;;;;;;;;5055898;28;20205;-66
2023/02/08 08:42:16;;;;;;;24.35;16.85;;;;;;;;;;5055743;28;20281;-66
2023/02/08 08:44:43;;;;;;;27.50;18.65;;;;;;;;;;5056053;28;20221;-66
2023/02/08 08:47:10;;;;;;;28.90;18.98;;;;;;;;;;5055671;28;20256;-66
2023/02/08 08:49:39;;;;;;;31.08;21.50;;;;;;;;;;5055313;28;20668;-66
2023/02/08 08:52:07;;;;;;;27.42;19.50;;;;;;;;;;5055762;28;20540;-66
2023/02/08 08:54:34;;;;;;;23.52;16.92;;;;;;;;;;5055282;28;20662;-65
2023/02/08 08:57:01;;;;;;;25.75;17.35;;;;;;;;;;5054996;28;20187;-66
2023/02/08 08:59:29;;;;;;;23.50;15.85;;;;;;;;;;5055464;28;20195;-66
2023/02/08 09:01:56;;;;;;;20.67;15.15;;;;;;;;;;5055406;28;20187;-66
2023/02/08 09:04:23;;;;;;;28.73;17.40;;;;;;;;;;5054762;28;20222;-66
2023/02/08 09:06:52;;;;;;;23.98;16.52;;;;;;;;;;5054973;28;20728;-66
2023/02/08 09:09:19;;;;;;;25.42;15.88;;;;;;;;;;5054955;28;20223;-66
2023/02/08 09:11:47;;;;;;;25.67;17.35;;;;;;;;;;5055235;28;20281;-66
2023/02/08 09:14:14;;;;;;;21.40;15.15;;;;;;;;;;5055126;28;20187;-66
2023/02/08 09:16:41;;;;;;;24.10;15.38;;;;;;;;;;5054717;28;20644;-66
2023/02/08 09:19:10;;;;;;;20.42;15.60;;;;;;;;;;5055136;28;20622;-66
2023/02/08 09:21:37;;;;;;;23.55;14.02;;;;;;;;;;5055473;28;20222;-66
2023/02/08 09:24:06;;;;;;;22.77;16.45;;;;;;;;;;5054946;28;20197;-66
2023/02/08 09:26:34;;;;;;;33.65;20.92;;;;;;;;;;5054430;28;20237;-63
2023/02/08 09:29:01;;;;;;;28.60;19.13;;;;;;;;;;5053907;28;20286;-63
2023/02/08 09:31:30;;;;;;;23.00;15.82;;;;;;;;;;5053948;28;20190;-66
2023/02/08 09:33:58;;;;;;;25.35;14.68;;;;;;;;;;5054387;28;20215;-66
2023/02/08 09:36:26;;;;;;;25.25;16.17;;;;;;;;;;5054964;28;20195;-66
2023/02/08 09:38:56;;;;;;;23.17;15.15;;;;;;;;;;5055248;28;20195;-65
2023/02/08 09:41:32;;;;;;;18.65;14.27;;;;;;;;;;5054789;28;20616;-66
2023/02/08 09:44:08;;;;;;;20.23;16.20;;;;;;;;;;5054444;28;20179;-66
2023/02/08 09:46:38;;;;;;;24.67;14.80;;;;;;;;;;5054474;28;20204;-66
2023/02/08 09:49:07;;;;;;;23.45;14.38;;;;;;;;;;5054535;28;20202;-66
2023/02/08 09:51:38;;;;;;;26.00;15.48;;;;;;;;;;5054418;28;20283;-66
2023/02/08 09:54:07;;;;;;;19.13;13.48;;;;;;;;;;5055237;28;20188;-66
2023/02/08 09:56:39;;;;;;;23.67;14.73;;;;;;;;;;5053999;28;20294;-66
2023/02/08 09:59:06;;;;;;;22.75;13.73;;;;;;;;;;5054948;28;20194;-65
2023/02/08 10:01:35;;;;;;;17.42;13.77;;;;;;;;;;5053921;28;20198;-66
2023/02/08 10:04:05;;;;;;;22.55;16.35;;;;;;;;;;5053797;28;20233;-66
2023/02/08 10:06:32;;;;;;;21.58;14.73;;;;;;;;;;5053830;28;20207;-66
2023/02/08 10:09:02;;;;;;;19.60;14.45;;;;;;;;;;5054202;28;20210;-65
2023/02/08 10:11:35;;;;;;;19.77;14.00;;;;;;;;;;5054091;28;20540;-66
2023/02/08 10:14:16;;;;;;;21.75;14.98;;;;;;;;;;5054296;28;20279;-66
2023/02/08 10:16:52;;;;;;;18.35;13.70;;;;;;;;;;5054222;28;20185;-66
2023/02/08 10:19:26;;;;;;;17.67;13.27;;;;;;;;;;5054135;28;20188;-65
2023/02/08 10:22:01;;;;;;;18.45;12.77;;;;;;;;;;5054204;28;20527;-66
2023/02/08 10:24:41;;;;;;;21.20;14.63;;;;;;;;;;5053617;28;20176;-66
2023/02/08 10:27:11;;;;;;;20.80;14.07;;;;;;;;;;5053924;28;20200;-66
2023/02/08 10:29:50;;;;;;;17.38;13.32;;;;;;;;;;5054796;28;20197;-66
2023/02/08 10:32:25;;;;;;;17.38;12.63;;;;;;;;;;5054381;28;20528;-66
2023/02/08 10:34:55;;;;;;;18.20;13.00;;;;;;;;;;5054462;28;20199;-66
2023/02/08 10:37:26;;;;;;;20.33;13.40;;;;;;;;;;5054246;28;20279;-66
2023/02/08 10:39:54;;;;;;;19.90;14.15;;;;;;;;;;5053514;28;20234;-66
2023/02/08 10:42:23;;;;;;;18.00;11.98;;;;;;;;;;5053559;28;20215;-64
2023/02/08 10:44:56;;;;;;;15.80;12.75;;;;;;;;;;5053627;28;20189;-63
2023/02/08 10:47:31;;;;;;;18.90;12.13;;;;;;;;;;5053181;28;20189;-64
2023/02/08 10:50:02;;;;;;;15.02;11.27;;;;;;;;;;5054271;28;20180;-64
2023/02/08 10:52:29;;;;;;;15.82;11.07;;;;;;;;;;5053147;28;20178;-64
2023/02/08 10:54:58;;;;;;;15.60;10.50;;;;;;;;;;5054080;28;20283;-63
2023/02/08 10:57:26;;;;;;;12.57;10.50;;;;;;;;;;5053024;28;20229;-65
2023/02/08 10:59:56;;;;;;;18.50;11.43;;;;;;;;;;5053090;28;20198;-63
2023/02/08 11:02:25;;;;;;;15.73;11.82;;;;;;;;;;5053433;28;20210;-65
2023/02/08 11:04:59;;;;;;;16.50;12.18;;;;;;;;;;5053185;28;20228;-66
2023/02/08 11:07:26;;;;;;;21.88;10.85;;;;;;;;;;5053277;28;20279;-64
2023/02/08 11:09:54;;;;;;;14.10;11.40;;;;;;;;;;5053215;28;20204;-63
2023/02/08 11:12:22;;;;;;;22.40;12.35;;;;;;;;;;5053220;28;20189;-64
2023/02/08 11:14:51;;;;;;;16.17;11.57;;;;;;;;;;5053292;28;20278;-66
2023/02/08 11:17:26;;;;;;;16.23;10.20;;;;;;;;;;5053151;28;20207;-67
2023/02/08 11:19:53;;;;;;;15.00;10.73;;;;;;;;;;5052955;28;20184;-66
2023/02/08 11:22:21;;;;;;;11.90;9.85;;;;;;;;;;5053623;28;20191;-67
2023/02/08 11:24:55;;;;;;;14.50;9.48;;;;;;;;;;5053140;28;20198;-66
2023/02/08 11:27:30;;;;;;;13.40;9.88;;;;;;;;;;5053199;28;20580;-66
2023/02/08 11:30:16;;;;;;;13.95;9.60;;;;;;;;;;5053483;28;20537;-65
2023/02/08 11:32:45;;;;;;;14.40;10.07;;;;;;;;;;5052810;28;20375;-66
2023/02/08 11:35:14;;;;;;;11.70;10.07;;;;;;;;;;5052755;28;20192;-66
2023/02/08 11:37:47;;;;;;;10.95;8.02;;;;;;;;;;5053539;28;20224;-66
2023/02/08 11:40:18;;;;;;;9.95;8.95;;;;;;;;;;5053498;28;20649;-66
2023/02/08 11:42:45;;;;;;;15.85;9.25;;;;;;;;;;5052644;28;20185;-66
2023/02/08 11:45:19;;;;;;;13.20;9.70;;;;;;;;;;5052925;28;20197;-66
2023/02/08 11:47:49;;;;;;;16.23;10.88;;;;;;;;;;5052969;28;20274;-66
2023/02/08 11:50:24;;;;;;;16.30;10.20;;;;;;;;;;5052707;28;20663;-66
2023/02/08 11:52:55;;;;;;;13.80;10.32;;;;;;;;;;5056851;28;20188;-66
2023/02/08 11:55:24;;;;;;;20.58;10.43;;;;;;;;;;5056543;28;20640;-66
2023/02/08 11:57:55;;;;;;;16.67;9.85;;;;;;;;;;5056258;28;20200;-67
2023/02/08 12:00:24;;;;;;;14.85;8.98;;;;;;;;;;5056220;28;20198;-66
2023/02/08 12:02:54;;;;;;;12.65;9.95;;;;;;;;;;5056620;28;20704;-64
2023/02/08 12:05:25;;;;;;;10.15;8.85;;;;;;;;;;5056497;28;20253;-65
2023/02/08 12:08:00;;;;;;;10.20;7.82;;;;;;;;;;5056521;28;20623;-66
2023/02/08 12:10:46;;;;;;;11.32;7.95;;;;;;;;;;5056173;28;20177;-66
2023/02/08 12:13:24;;;;;;;11.07;9.30;;;;;;;;;;5056110;28;20621;-66
2023/02/08 12:16:00;;;;;;;11.80;8.13;;;;;;;;;;5056012;28;20277;-66
2023/02/08 12:18:36;;;;;;;12.13;8.75;;;;;;;;;;5056472;28;20525;-64
2023/02/08 12:21:05;;;;;;;10.63;8.15;;;;;;;;;;5056618;28;20178;-63
2023/02/08 12:23:43;;;;;;;13.25;8.50;;;;;;;;;;5056015;28;20194;-65
2023/02/08 12:26:15;;;;;;;9.38;7.43;;;;;;;;;;5056166;28;20208;-66
2023/02/08 12:28:50;;;;;;;8.40;7.43;;;;;;;;;;5056217;28;20525;-66
2023/02/08 12:31:22;;;;;;;10.60;6.97;;;;;;;;;;5056154;28;20533;-66
2023/02/08 12:33:55;;;;;;;10.07;7.90;;;;;;;;;;5056359;28;20512;-66
2023/02/08 12:36:31;;;;;;;11.25;8.23;;;;;;;;;;5056442;28;20259;-65
2023/02/08 12:42:03;;;;;;;11.38;7.13;;;;;;;;;;5029965;28;20193;-66
2023/02/08 12:44:34;;;;;;;8.45;7.07;;;;;;;;;;5055407;28;20636;-66
2023/02/08 12:47:06;;;;;;;10.32;8.02;;;;;;;;;;5055728;28;20215;-66
2023/02/08 12:49:43;;;;;;;8.10;7.30;;;;;;;;;;5055352;28;20616;-66
2023/02/08 12:52:16;;;;;;;9.02;6.80;;;;;;;;;;5055417;28;20179;-66
2023/02/08 12:54:47;;;;;;;8.57;6.65;;;;;;;;;;5055585;28;20627;-66
2023/02/08 12:57:15;;;;;;;9.38;6.55;;;;;;;;;;5055764;28;20188;-66
2023/02/08 12:59:45;;;;;;;7.57;5.90;;;;;;;;;;5055684;28;20222;-65
2023/02/08 13:02:16;;;;;;;7.38;5.60;;;;;;;;;;5054932;28;20194;-64
2023/02/08 13:04:47;;;;;;;8.32;6.03;;;;;;;;;;5055076;28;20703;-64
2023/02/08 13:07:16;;;;;;;9.13;5.57;;;;;;;;;;5055235;28;20209;-64
2023/02/08 13:09:46;;;;;;;7.22;5.55;;;;;;;;;;5055239;28;20193;-63
2023/02/08 13:12:15;;;;;;;6.47;5.85;;;;;;;;;;5054998;28;20645;-66
2023/02/08 13:14:44;;;;;;;7.75;5.55;;;;;;;;;;5055120;28;20197;-66
2023/02/08 13:17:15;;;;;;;4.82;4.40;;;;;;;;;;5054872;28;20637;-66
2023/02/08 13:19:48;;;;;;;7.72;4.88;;;;;;;;;;5055444;28;20523;-64
2023/02/08 13:22:17;;;;;;;5.95;5.45;;;;;;;;;;5054817;28;20645;-64
2023/02/08 13:24:45;;;;;;;9.05;5.18;;;;;;;;;;5054703;28;20197;-64
2023/02/08 13:27:16;;;;;;;6.85;5.05;;;;;;;;;;5055112;28;20270;-64
2023/02/08 13:29:45;;;;;;;6.25;4.97;;;;;;;;;;5055704;28;20222;-64
2023/02/08 13:32:17;;;;;;;5.90;4.50;;;;;;;;;;5054557;28;20195;-64
2023/02/08 13:34:47;;;;;;;5.63;4.55;;;;;;;;;;5055103;28;20224;-64
2023/02/08 13:37:22;;;;;;;6.45;4.70;;;;;;;;;;5054699;28;20562;-64
2023/02/08 13:39:50;;;;;;;7.32;5.72;;;;;;;;;;5054388;28;20661;-64
2023/02/08 13:42:22;;;;;;;12.10;4.95;;;;;;;;;;5054708;28;20198;-64
2023/02/08 13:44:50;;;;;;;5.45;4.75;;;;;;;;;;5054627;28;20194;-64
2023/02/08 13:47:24;;;;;;;6.38;4.97;;;;;;;;;;5054512;28;20214;-64
2023/02/08 13:49:59;;;;;;;5.78;5.18;;;;;;;;;;5054470;28;20193;-64
2023/02/08 13:52:45;;;;;;;8.13;5.32;;;;;;;;;;5054378;28;20280;-65
2023/02/08 13:55:32;;;;;;;23.00;11.27;;;;;;;;;;5054529;28;20197;-66
2023/02/08 13:58:01;;;;;;;8.02;5.15;;;;;;;;;;5054373;28;20520;-66
2023/02/08 14:00:29;;;;;;;4.57;4.18;;;;;;;;;;5053796;28;20669;-65
2023/02/08 14:03:00;;;;;;;6.55;4.20;;;;;;;;;;5054540;28;20208;-64
2023/02/08 14:05:52;;;;;;;6.88;4.65;;;;;;;;;;5053607;28;20313;-65
2023/02/08 14:08:22;;;;;;;10.13;4.50;;;;;;;;;;5030878;28;20277;-67
2023/02/08 14:10:52;;;;;;;5.22;4.15;;;;;;;;;;5053679;28;20283;-65
2023/02/08 14:13:28;;;;;;;4.95;4.55;;;;;;;;;;5054064;28;20185;-65
2023/02/08 14:16:10;;;;;;;9.73;5.20;;;;;;;;;;5066796;28;20188;-64
2023/02/08 14:18:37;;;;;;;6.45;3.80;;;;;;;;;;5056688;28;20190;-65
2023/02/08 14:21:06;;;;;;;4.75;4.20;;;;;;;;;;5052924;28;20536;-66
2023/02/08 14:23:35;;;;;;;7.28;4.60;;;;;;;;;;5053548;28;20621;-65
2023/02/08 14:26:04;;;;;;;6.25;4.55;;;;;;;;;;5052950;28;20190;-65
2023/02/08 14:28:34;;;;;;;5.45;4.53;;;;;;;;;;5052953;28;20189;-65
2023/02/08 14:31:05;;;;;;;7.03;4.20;;;;;;;;;;5053057;28;20216;-68
2023/02/08 14:33:34;;;;;;;5.18;4.65;;;;;;;;;;5053563;28;20186;-65
2023/02/08 14:36:02;;;;;;;4.95;4.43;;;;;;;;;;5052713;28;20189;-65
2023/02/08 14:38:35;;;;;;;6.90;4.70;;;;;;;;;;5053042;28;20205;-67